Time;durP1;ratioP1;P1;durP2;ratioP2;P2;SDS_P1;SDS_P2;PMS_P1;PMS_P2;Temp;Humidity;BMP_temperature;BMP_pressure;BME280_temperature;BME280_humidity;BME280_pressure;Samples;Min_cycle;Max_cycle;Signal;HPM_P1;HPM_P2
2021/12/20 00:01:56;;;;;;;17.33;2.60;;;11.00;83.90;;;;;;5049255;28;20025;-75
2021/12/20 00:04:22;;;;;;;15.77;3.00;;;11.10;83.90;;;;;;5032581;28;20061;-76
2021/12/20 00:06:48;;;;;;;16.83;2.70;;;11.00;83.70;;;;;;5031453;28;20053;-76
2021/12/20 00:09:14;;;;;;;21.70;3.28;;;11.10;83.50;;;;;;5042207;28;20451;-76
2021/12/20 00:11:39;;;;;;;16.35;2.70;;;11.10;83.40;;;;;;5048119;28;20030;-75
2021/12/20 00:14:08;;;;;;;21.42;3.13;;;11.20;83.30;;;;;;5042365;28;20043;-75
2021/12/20 00:16:34;;;;;;;16.27;2.67;;;11.10;83.20;;;;;;5040443;28;20073;-76
2021/12/20 00:18:59;;;;;;;24.52;3.38;;;11.10;83.10;;;;;;5031828;28;20033;-75
2021/12/20 00:21:25;;;;;;;17.45;3.25;;;11.10;83.00;;;;;;5043881;28;20064;-75
2021/12/20 00:23:51;;;;;;;20.10;2.92;;;11.00;82.90;;;;;;5032713;28;20484;-75
2021/12/20 00:26:16;;;;;;;11.65;2.15;;;11.00;82.90;;;;;;5032104;28;20034;-76
2021/12/20 00:28:42;;;;;;;15.77;2.33;;;11.00;82.90;;;;;;5044304;28;20022;-76
2021/12/20 00:31:08;;;;;;;28.20;4.10;;;11.00;82.80;;;;;;5045272;28;20029;-75
2021/12/20 00:33:34;;;;;;;22.67;2.47;;;11.00;82.80;;;;;;5054335;28;20116;-76
2021/12/20 00:36:06;;;;;;;15.15;2.65;;;11.00;82.70;;;;;;5055206;28;20036;-76
2021/12/20 00:41:17;;;;;;;17.35;3.55;;;10.90;82.70;;;;;;5051306;28;20116;-76
2021/12/20 00:43:43;;;;;;;11.45;2.22;;;10.90;82.70;;;;;;5044750;28;20160;-75
2021/12/20 00:46:09;;;;;;;21.90;3.50;;;10.90;82.70;;;;;;5040321;28;20090;-76
2021/12/20 00:48:34;;;;;;;12.20;2.63;;;10.90;82.80;;;;;;5054981;28;20484;-75
2021/12/20 00:51:00;;;;;;;21.30;2.70;;;10.90;82.80;;;;;;5042570;28;20049;-75
2021/12/20 00:53:29;;;;;;;19.08;3.13;;;10.90;82.70;;;;;;5044444;28;20033;-76
2021/12/20 00:55:55;;;;;;;33.80;2.72;;;10.90;82.60;;;;;;5034504;28;20037;-76
2021/12/20 00:58:21;;;;;;;14.05;2.30;;;10.90;82.60;;;;;;5035554;28;20507;-76
2021/12/20 01:00:51;;;;;;;22.90;3.20;;;10.80;82.50;;;;;;5048503;28;20105;-75
2021/12/20 01:03:18;;;;;;;13.13;3.10;;;10.90;82.60;;;;;;5035164;28;20385;-76
2021/12/20 01:05:44;;;;;;;21.73;3.70;;;10.80;82.60;;;;;;5055211;28;20064;-76
2021/12/20 01:08:10;;;;;;;18.73;3.17;;;10.80;82.70;;;;;;5054957;28;20075;-75
2021/12/20 01:10:41;;;;;;;16.80;2.33;;;10.80;82.70;;;;;;5049896;28;20075;-75
2021/12/20 01:13:07;;;;;;;15.35;2.83;;;10.80;82.60;;;;;;5048926;28;20044;-76
2021/12/20 01:15:45;;;;;;;15.77;2.67;;;10.80;82.70;;;;;;5041918;28;20432;-75
2021/12/20 01:18:10;;;;;;;21.30;2.58;;;10.80;82.60;;;;;;5046524;28;20484;-76
2021/12/20 01:20:36;;;;;;;16.38;2.47;;;10.80;82.60;;;;;;5054561;28;20025;-75
2021/12/20 01:23:03;;;;;;;12.20;2.47;;;10.80;82.60;;;;;;5042840;28;20030;-76
2021/12/20 01:25:29;;;;;;;13.52;2.42;;;10.80;82.60;;;;;;5041132;28;20036;-76
2021/12/20 01:27:54;;;;;;;24.20;3.72;;;10.80;82.60;;;;;;5054692;28;20028;-75
2021/12/20 01:30:22;;;;;;;13.27;2.45;;;10.80;82.60;;;;;;5053936;28;20029;-75
2021/12/20 01:32:49;;;;;;;16.27;2.35;;;10.70;82.50;;;;;;5054506;28;20484;-76
2021/12/20 01:35:16;;;;;;;10.40;2.20;;;10.70;82.40;;;;;;5054707;28;20128;-76
2021/12/20 01:37:42;;;;;;;15.30;2.28;;;10.70;82.40;;;;;;5040594;28;20053;-76
2021/12/20 01:40:11;;;;;;;16.67;2.60;;;10.70;82.30;;;;;;5045958;28;20025;-76
2021/12/20 01:42:37;;;;;;;12.90;2.47;;;10.70;82.30;;;;;;5044536;28;20515;-77
2021/12/20 01:45:05;;;;;;;18.92;2.10;;;10.70;82.30;;;;;;5048808;28;20021;-78
2021/12/20 01:47:36;;;;;;;26.77;2.55;;;10.70;82.20;;;;;;5054964;28;20049;-76
2021/12/20 01:50:16;;;;;;;17.00;2.15;;;10.70;82.30;;;;;;5050798;28;20068;-77
2021/12/20 01:52:43;;;;;;;18.95;2.53;;;10.60;82.20;;;;;;5040252;28;20411;-76
2021/12/20 01:55:21;;;;;;;12.15;2.42;;;10.60;82.20;;;;;;5044346;28;20049;-77
2021/12/20 01:57:48;;;;;;;15.48;2.90;;;10.60;82.10;;;;;;5039344;28;20040;-76
2021/12/20 02:00:20;;;;;;;20.88;2.42;;;10.50;82.20;;;;;;5041444;28;20385;-77
2021/12/20 02:02:54;;;;;;;22.33;1.95;;;10.50;82.30;;;;;;5034675;28;20035;-76
2021/12/20 02:05:28;;;;;;;27.73;2.55;;;10.50;82.30;;;;;;5033452;28;20033;-76
2021/12/20 02:08:15;;;;;;;12.25;2.47;;;10.50;82.40;;;;;;5034476;28;20057;-76
2021/12/20 02:10:43;;;;;;;18.92;1.88;;;10.40;82.30;;;;;;5033990;28;20105;-76
2021/12/20 02:13:09;;;;;;;11.10;1.92;;;10.40;82.30;;;;;;5046451;28;20033;-76
2021/12/20 02:15:34;;;;;;;19.17;2.50;;;10.40;82.30;;;;;;5050824;28;20029;-76
2021/12/20 02:18:00;;;;;;;17.85;2.45;;;10.40;82.20;;;;;;5044144;28;20041;-76
2021/12/20 02:20:30;;;;;;;15.73;1.95;;;10.30;82.20;;;;;;5050624;28;20042;-76
2021/12/20 02:22:57;;;;;;;13.60;2.65;;;10.30;82.10;;;;;;5042429;28;20489;-76
2021/12/20 02:25:24;;;;;;;15.40;1.92;;;10.30;82.10;;;;;;5039108;28;20036;-76
2021/12/20 02:27:50;;;;;;;12.63;2.33;;;10.30;82.10;;;;;;5041077;28;20037;-76
2021/12/20 02:38:40;;;;;;;12.10;2.60;;;10.20;81.60;;;;;;5041089;28;20052;-76
2021/12/20 02:41:12;;;;;;;10.38;2.25;;;10.10;81.50;;;;;;5044639;28;20022;-76
2021/12/20 02:43:41;;;;;;;12.48;2.22;;;10.10;81.40;;;;;;5037106;28;20439;-77
2021/12/20 02:49:23;;;;;;;9.85;1.88;;;10.10;81.20;;;;;;5044197;28;20423;-76
2021/12/20 02:51:53;;;;;;;9.43;2.13;;;10.10;81.80;;;;;;5046229;28;20053;-76
2021/12/20 02:54:22;;;;;;;13.05;1.88;;;10.00;81.00;;;;;;5032230;28;20393;-76
2021/12/20 02:56:48;;;;;;;11.55;1.90;;;10.00;80.80;;;;;;5032784;28;20447;-76
2021/12/20 02:59:15;;;;;;;9.82;2.03;;;9.90;80.70;;;;;;5042244;28;20045;-76
2021/12/20 03:01:44;;;;;;;6.88;1.63;;;9.90;80.50;;;;;;5039078;28;20380;-76
2021/12/20 03:04:10;;;;;;;6.28;1.77;;;9.90;80.40;;;;;;5053184;28;20040;-76
2021/12/20 03:06:41;;;;;;;6.28;1.63;;;9.90;80.30;;;;;;5049768;28;20029;-76
2021/12/20 03:09:11;;;;;;;14.13;1.95;;;9.90;80.30;;;;;;5043585;28;20041;-76
2021/12/20 03:11:37;;;;;;;15.30;3.03;;;9.80;80.20;;;;;;5042824;28;20028;-76
2021/12/20 03:14:17;;;;;;;8.45;1.60;;;9.80;80.20;;;;;;5036687;28;20036;-76
2021/12/20 03:16:42;;;;;;;11.75;2.25;;;9.80;80.20;;;;;;5052390;28;20021;-76
2021/12/20 03:19:08;;;;;;;13.10;2.70;;;9.80;80.20;;;;;;5033693;28;20404;-76
2021/12/20 03:21:34;;;;;;;22.27;2.17;;;9.80;80.20;;;;;;5033216;28;20080;-76
2021/12/20 03:24:00;;;;;;;9.77;1.90;;;9.70;80.10;;;;;;5045266;28;20355;-76
2021/12/20 03:26:26;;;;;;;9.07;2.15;;;9.70;80.10;;;;;;5032545;28;20806;-75
2021/12/20 03:28:51;;;;;;;12.45;1.50;;;9.70;80.10;;;;;;5045967;28;20091;-76
2021/12/20 03:31:18;;;;;;;9.45;1.75;;;9.70;80.10;;;;;;5032427;28;20022;-76
2021/12/20 03:33:44;;;;;;;8.13;2.47;;;9.60;80.00;;;;;;5045231;28;20052;-76
2021/12/20 03:36:09;;;;;;;6.82;1.80;;;9.60;80.10;;;;;;5046723;28;20860;-76
2021/12/20 03:38:35;;;;;;;10.35;2.17;;;9.60;80.10;;;;;;5051607;28;20045;-76
2021/12/20 03:41:01;;;;;;;6.03;1.60;;;9.60;80.00;;;;;;5038445;28;20033;-77
2021/12/20 03:43:31;;;;;;;8.98;1.60;;;9.60;80.00;;;;;;5036710;28;20033;-76
2021/12/20 03:46:02;;;;;;;8.80;2.08;;;9.60;80.00;;;;;;5040946;28;20053;-76
2021/12/20 03:48:28;;;;;;;10.75;1.70;;;9.60;80.00;;;;;;5045335;28;20052;-76
2021/12/20 03:50:55;;;;;;;11.35;1.70;;;9.60;80.00;;;;;;5044532;28;20045;-76
2021/12/20 03:53:21;;;;;;;12.23;1.73;;;9.50;80.00;;;;;;5038926;28;20487;-76
2021/12/20 03:55:46;;;;;;;7.35;1.90;;;9.50;80.10;;;;;;5038955;28;20033;-77
2021/12/20 03:58:12;;;;;;;6.53;1.48;;;9.50;80.10;;;;;;5031697;28;20045;-76
2021/12/20 04:00:38;;;;;;;11.43;2.20;;;9.50;80.00;;;;;;5032282;28;20473;-76
2021/12/20 04:03:09;;;;;;;9.35;1.73;;;9.50;80.00;;;;;;5032383;28;20039;-76
2021/12/20 04:05:35;;;;;;;14.38;2.58;;;9.50;80.00;;;;;;5033612;28;20037;-76
2021/12/20 04:08:01;;;;;;;12.63;2.05;;;9.40;80.00;;;;;;5056224;28;20079;-76
2021/12/20 04:10:26;;;;;;;5.63;1.48;;;9.40;80.00;;;;;;5056008;28;20037;-76
2021/12/20 04:12:52;;;;;;;9.57;1.95;;;9.40;80.00;;;;;;5055794;28;20064;-76
2021/12/20 04:15:18;;;;;;;9.27;1.73;;;9.40;79.90;;;;;;5055871;28;20068;-76
2021/12/20 04:17:43;;;;;;;12.25;1.95;;;9.30;79.90;;;;;;5056179;28;20060;-76
2021/12/20 04:20:10;;;;;;;11.48;1.70;;;9.30;79.90;;;;;;5055453;28;20032;-76
2021/12/20 04:22:35;;;;;;;14.63;1.80;;;9.30;79.90;;;;;;5056138;28;20496;-76
2021/12/20 04:25:01;;;;;;;9.60;2.33;;;9.30;80.00;;;;;;5056100;28;20021;-76
2021/12/20 04:27:26;;;;;;;9.45;1.77;;;9.30;80.10;;;;;;5045161;28;20041;-76
2021/12/20 04:29:54;;;;;;;11.45;2.25;;;9.20;80.00;;;;;;5039757;28;20036;-76
2021/12/20 04:32:20;;;;;;;7.82;1.45;;;9.20;80.10;;;;;;5055969;28;20472;-76
2021/12/20 04:34:46;;;;;;;16.85;3.85;;;9.20;80.60;;;;;;5038399;28;20048;-76
2021/12/20 04:37:11;;;;;;;9.73;1.52;;;9.20;80.00;;;;;;5047453;28;20107;-76
2021/12/20 04:39:37;;;;;;;12.77;2.28;;;9.10;80.10;;;;;;5055608;28;20069;-76
2021/12/20 04:42:04;;;;;;;14.93;2.60;;;9.10;80.20;;;;;;5044158;28;20389;-76
2021/12/20 04:44:29;;;;;;;10.63;1.77;;;9.10;80.40;;;;;;5054507;28;20048;-76
2021/12/20 04:46:55;;;;;;;7.40;1.60;;;9.10;80.50;;;;;;5034999;28;20026;-76
2021/12/20 04:49:23;;;;;;;9.82;2.65;;;9.00;80.40;;;;;;5035502;28;20037;-76
2021/12/20 04:51:48;;;;;;;10.55;1.98;;;9.00;80.30;;;;;;5055463;28;20048;-77
2021/12/20 04:54:14;;;;;;;18.33;2.13;;;9.00;80.40;;;;;;5053670;28;20039;-77
2021/12/20 04:56:40;;;;;;;12.63;2.00;;;9.00;80.20;;;;;;5035712;28;20040;-77
2021/12/20 04:59:05;;;;;;;22.17;2.03;;;8.90;80.40;;;;;;5036610;28;20052;-77
2021/12/20 05:01:31;;;;;;;11.05;2.08;;;8.90;80.50;;;;;;5054024;28;20033;-77
2021/12/20 05:03:57;;;;;;;14.25;1.90;;;8.90;80.40;;;;;;5042155;28;20033;-78
2021/12/20 05:06:22;;;;;;;7.43;1.60;;;8.90;80.40;;;;;;5035715;28;20099;-78
2021/12/20 05:08:50;;;;;;;23.63;2.67;;;8.90;80.30;;;;;;5035013;28;20428;-78
2021/12/20 05:11:17;;;;;;;7.90;2.13;;;8.90;80.30;;;;;;5044609;28;20040;-79
2021/12/20 05:13:43;;;;;;;10.75;2.53;;;8.80;80.30;;;;;;5052048;28;20037;-79
2021/12/20 05:16:09;;;;;;;12.25;2.33;;;8.80;80.20;;;;;;5034971;28;20038;-79
2021/12/20 05:18:37;;;;;;;14.32;2.22;;;8.80;80.20;;;;;;5049086;28;20444;-77
2021/12/20 05:21:03;;;;;;;10.27;1.73;;;8.70;80.10;;;;;;5055185;28;20029;-77
2021/12/20 05:23:29;;;;;;;9.45;2.30;;;8.80;80.20;;;;;;5050833;28;20021;-77
2021/12/20 05:25:55;;;;;;;12.38;1.98;;;8.70;80.00;;;;;;5035362;28;20462;-77
2021/12/20 05:28:22;;;;;;;11.05;2.40;;;8.70;80.00;;;;;;5051428;28;20064;-78
2021/12/20 05:30:50;;;;;;;12.43;1.88;;;8.70;80.00;;;;;;5054697;28;20033;-77
2021/12/20 05:33:16;;;;;;;12.52;2.33;;;8.70;79.90;;;;;;5054690;28;20036;-80
2021/12/20 05:35:42;;;;;;;9.63;2.20;;;8.70;79.90;;;;;;5055041;28;20025;-78
2021/12/20 05:38:07;;;;;;;13.63;2.38;;;8.60;79.90;;;;;;5036274;28;20384;-79
2021/12/20 05:40:36;;;;;;;16.73;2.63;;;8.60;79.80;;;;;;5035217;28;20413;-71
2021/12/20 05:43:03;;;;;;;14.45;2.05;;;8.60;79.80;;;;;;5052039;28;20041;-77
2021/12/20 05:45:29;;;;;;;11.73;2.05;;;8.60;80.00;;;;;;5038570;28;20032;-77
2021/12/20 05:47:55;;;;;;;13.35;2.15;;;8.60;80.00;;;;;;5033927;28;20064;-77
2021/12/20 05:50:22;;;;;;;14.93;2.70;;;8.50;79.90;;;;;;5035735;28;20064;-77
2021/12/20 05:52:48;;;;;;;12.15;2.40;;;8.50;79.90;;;;;;5034142;28;20053;-77
2021/12/20 05:55:15;;;;;;;18.38;3.20;;;8.50;80.00;;;;;;5034362;28;20432;-77
2021/12/20 05:57:40;;;;;;;22.80;2.60;;;8.40;79.90;;;;;;5043759;28;20032;-77
2021/12/20 06:00:12;;;;;;;13.85;2.95;;;8.40;79.90;;;;;;5039564;28;20086;-77
2021/12/20 06:02:41;;;;;;;7.68;2.85;;;8.40;79.90;;;;;;5036717;28;20044;-77
2021/12/20 06:05:08;;;;;;;18.88;2.78;;;8.40;80.00;;;;;;5038771;28;20150;-77
2021/12/20 06:07:38;;;;;;;18.25;2.70;;;8.40;80.00;;;;;;5039463;28;20417;-77
2021/12/20 06:10:05;;;;;;;17.48;2.42;;;8.40;80.00;;;;;;5036389;28;20075;-77
2021/12/20 06:12:31;;;;;;;11.70;2.38;;;8.40;80.00;;;;;;5035662;28;20534;-77
2021/12/20 06:14:56;;;;;;;15.35;2.22;;;8.40;80.10;;;;;;5036241;28;20025;-77
2021/12/20 06:17:22;;;;;;;12.32;2.70;;;8.30;80.10;;;;;;5033389;28;20079;-77
2021/12/20 06:19:48;;;;;;;13.27;2.40;;;8.30;80.00;;;;;;5038587;28;20041;-78
2021/12/20 06:22:14;;;;;;;15.70;2.72;;;8.30;80.00;;;;;;5033428;28;20063;-78
2021/12/20 06:24:39;;;;;;;10.85;2.03;;;8.30;80.00;;;;;;5033417;28;20112;-77
2021/12/20 06:27:05;;;;;;;9.13;2.35;;;8.20;80.00;;;;;;5038343;28;20485;-77
2021/12/20 06:29:31;;;;;;;16.65;2.67;;;8.20;80.00;;;;;;5032590;28;20454;-77
2021/12/20 06:31:57;;;;;;;11.52;2.80;;;8.20;80.10;;;;;;5032761;28;20029;-78
2021/12/20 06:34:22;;;;;;;14.23;3.50;;;8.20;80.10;;;;;;5034880;28;20488;-78
2021/12/20 06:36:48;;;;;;;11.35;2.25;;;8.20;80.20;;;;;;5036122;28;20033;-78
2021/12/20 06:39:14;;;;;;;11.13;2.30;;;8.20;80.20;;;;;;5041125;28;20037;-78
2021/12/20 06:41:42;;;;;;;8.77;1.92;;;8.10;80.20;;;;;;5035280;28;20824;-77
2021/12/20 06:44:08;;;;;;;17.83;2.15;;;8.10;80.10;;;;;;5044092;28;20025;-78
2021/12/20 06:46:40;;;;;;;11.88;3.20;;;8.10;80.10;;;;;;5041115;28;20547;-78
2021/12/20 06:49:09;;;;;;;8.98;2.20;;;8.10;80.70;;;;;;5054536;28;20037;-77
2021/12/20 06:51:39;;;;;;;11.50;2.55;;;8.00;80.00;;;;;;5048151;28;20131;-78
2021/12/20 06:54:05;;;;;;;11.20;2.10;;;8.00;80.10;;;;;;5046030;28;20120;-77
2021/12/20 06:56:31;;;;;;;16.08;2.53;;;7.90;80.20;;;;;;5033579;28;20045;-78
2021/12/20 06:58:57;;;;;;;9.48;2.22;;;8.00;80.20;;;;;;5033109;28;20413;-77
2021/12/20 07:01:22;;;;;;;10.05;2.03;;;7.90;80.10;;;;;;5039482;28;20071;-78
2021/12/20 07:03:48;;;;;;;14.98;2.92;;;7.90;80.10;;;;;;5039494;28;20037;-78
2021/12/20 07:06:14;;;;;;;18.38;2.65;;;7.90;80.00;;;;;;5033289;28;20033;-77
2021/12/20 07:08:39;;;;;;;15.80;2.85;;;7.90;79.90;;;;;;5046454;28;20033;-78
2021/12/20 07:11:07;;;;;;;18.30;2.42;;;7.90;80.00;;;;;;5053346;28;20024;-77
2021/12/20 07:13:32;;;;;;;14.48;2.65;;;7.80;79.80;;;;;;5040579;28;20037;-78
2021/12/20 07:15:58;;;;;;;15.63;2.55;;;7.80;79.80;;;;;;5045044;28;20029;-78
2021/12/20 07:18:24;;;;;;;14.40;2.92;;;7.80;79.80;;;;;;5047697;28;20132;-77
2021/12/20 07:20:49;;;;;;;10.90;2.47;;;7.80;79.80;;;;;;5053006;28;20052;-77
2021/12/20 07:23:15;;;;;;;22.17;2.83;;;7.80;80.00;;;;;;5036697;28;20084;-77
2021/12/20 07:25:41;;;;;;;17.80;3.03;;;7.70;80.00;;;;;;5033266;28;20526;-78
2021/12/20 07:28:07;;;;;;;10.10;2.22;;;7.70;80.00;;;;;;5045825;28;20124;-77
2021/12/20 07:30:33;;;;;;;14.80;3.08;;;7.70;80.00;;;;;;5041774;28;20112;-78
2021/12/20 07:32:59;;;;;;;22.83;6.63;;;7.70;79.90;;;;;;5034620;28;20025;-77
2021/12/20 07:35:24;;;;;;;18.15;2.80;;;7.70;79.90;;;;;;5037594;28;20021;-78
2021/12/20 07:37:54;;;;;;;12.75;2.38;;;7.70;80.00;;;;;;5033675;28;20561;-78
2021/12/20 07:40:20;;;;;;;11.35;2.67;;;7.70;80.00;;;;;;5034998;28;20027;-77
2021/12/20 07:42:45;;;;;;;11.77;2.55;;;7.60;79.90;;;;;;5031967;28;20065;-78
2021/12/20 07:45:11;;;;;;;17.00;2.83;;;7.60;80.00;;;;;;5051310;28;20111;-77
2021/12/20 07:47:37;;;;;;;11.45;3.22;;;7.60;80.10;;;;;;5039571;28;20164;-83
2021/12/20 07:50:04;;;;;;;15.90;3.58;;;7.60;80.30;;;;;;5045819;28;20029;-77
2021/12/20 07:52:32;;;;;;;12.05;3.05;;;7.50;80.40;;;;;;5052215;28;20088;-78
2021/12/20 07:54:59;;;;;;;21.73;3.90;;;7.50;80.50;;;;;;5039282;28;20034;-77
2021/12/20 07:57:25;;;;;;;14.18;3.10;;;7.50;80.70;;;;;;5035452;28;20047;-77
2021/12/20 07:59:51;;;;;;;8.13;2.83;;;7.50;80.80;;;;;;5032230;28;20033;-77
2021/12/20 08:02:17;;;;;;;10.63;2.70;;;7.50;80.80;;;;;;5032341;28;20058;-76
2021/12/20 08:04:48;;;;;;;15.38;2.85;;;7.40;80.70;;;;;;5031494;28;20029;-76
2021/12/20 08:07:18;;;;;;;11.02;2.65;;;7.50;80.80;;;;;;5045181;28;20033;-76
2021/12/20 08:09:44;;;;;;;14.55;3.00;;;7.40;80.70;;;;;;5045703;28;20110;-75
2021/12/20 08:12:10;;;;;;;13.02;5.47;;;7.40;80.70;;;;;;5034212;28;20069;-78
2021/12/20 08:14:36;;;;;;;12.68;3.25;;;7.40;80.70;;;;;;5031631;28;20469;-77
2021/12/20 08:17:02;;;;;;;12.75;3.47;;;7.40;80.80;;;;;;5031456;28;20083;-78
2021/12/20 08:19:27;;;;;;;21.85;3.22;;;7.40;80.90;;;;;;5033507;28;20069;-77
2021/12/20 08:21:53;;;;;;;15.27;3.88;;;7.30;80.90;;;;;;5031812;28;20068;-77
2021/12/20 08:24:18;;;;;;;15.82;3.03;;;7.40;81.10;;;;;;5034438;28;20025;-76
2021/12/20 08:26:44;;;;;;;17.38;3.13;;;7.40;81.30;;;;;;5032432;28;20438;-77
2021/12/20 08:29:10;;;;;;;14.48;3.00;;;7.30;81.20;;;;;;5034650;28;20029;-76
2021/12/20 08:31:36;;;;;;;13.82;3.35;;;7.40;81.30;;;;;;5032214;28;20021;-72
2021/12/20 08:34:03;;;;;;;17.23;3.22;;;7.30;81.30;;;;;;5031202;28;20496;-77
2021/12/20 08:36:29;;;;;;;27.15;4.13;;;7.30;81.30;;;;;;5037426;28;20044;-76
2021/12/20 08:38:54;;;;;;;9.65;3.15;;;7.30;81.60;;;;;;5031009;28;20033;-76
2021/12/20 08:41:20;;;;;;;13.45;3.17;;;7.30;81.60;;;;;;5030253;28;20156;-77
2021/12/20 08:43:46;;;;;;;24.27;3.50;;;7.30;81.60;;;;;;5033833;28;20473;-77
2021/12/20 08:46:14;;;;;;;18.95;3.33;;;7.30;81.60;;;;;;5032630;28;20099;-76
2021/12/20 08:48:40;;;;;;;12.82;2.92;;;7.30;81.70;;;;;;5034365;28;20037;-76
2021/12/20 08:51:06;;;;;;;22.20;3.70;;;7.30;81.70;;;;;;5031317;28;20393;-75
2021/12/20 08:53:32;;;;;;;15.82;3.08;;;7.30;81.80;;;;;;5033328;28;20033;-76
2021/12/20 08:55:58;;;;;;;20.85;3.60;;;7.30;81.80;;;;;;5035000;28;20124;-76
2021/12/20 08:58:24;;;;;;;11.50;3.40;;;7.30;81.90;;;;;;5043708;28;20033;-76
2021/12/20 09:00:50;;;;;;;27.55;4.18;;;7.30;82.00;;;;;;5043918;28;20059;-75
2021/12/20 09:03:16;;;;;;;18.63;3.58;;;7.30;82.10;;;;;;5043313;28;20028;-76
2021/12/20 09:05:41;;;;;;;21.15;4.25;;;7.30;82.20;;;;;;5041602;28;20064;-76
2021/12/20 09:08:09;;;;;;;21.25;3.95;;;7.30;82.30;;;;;;5042010;28;20069;-75
2021/12/20 09:10:35;;;;;;;14.35;3.85;;;7.30;82.30;;;;;;5038887;28;20087;-75
2021/12/20 09:13:01;;;;;;;14.75;4.00;;;7.30;82.30;;;;;;5039676;28;20026;-76
2021/12/20 09:15:27;;;;;;;17.65;4.57;;;7.30;82.40;;;;;;5042668;28;20435;-76
2021/12/20 09:17:56;;;;;;;13.50;3.55;;;7.30;82.50;;;;;;5036879;28;20056;-76
2021/12/20 09:20:25;;;;;;;22.55;4.07;;;7.40;82.60;;;;;;5041270;28;20467;-75
2021/12/20 09:22:53;;;;;;;21.48;5.07;;;7.30;82.70;;;;;;5043506;28;20025;-75
2021/12/20 09:25:21;;;;;;;16.88;4.70;;;7.40;82.80;;;;;;5039742;28;20037;-75
2021/12/20 09:27:46;;;;;;;10.85;3.40;;;7.40;83.00;;;;;;5045345;28;20029;-75
2021/12/20 09:30:13;;;;;;;11.48;3.38;;;7.40;83.20;;;;;;5042240;28;20075;-76
2021/12/20 09:32:39;;;;;;;14.50;4.22;;;7.40;83.40;;;;;;5039835;28;20056;-74
2021/12/20 09:35:05;;;;;;;10.48;3.53;;;7.30;83.60;;;;;;5038481;28;20052;-89
2021/12/20 09:37:31;;;;;;;16.77;4.20;;;7.30;83.70;;;;;;5042930;28;20038;-82
2021/12/20 09:39:59;;;;;;;14.02;4.60;;;7.40;84.50;;;;;;5043046;28;20035;-81
2021/12/20 09:42:25;;;;;;;11.98;3.80;;;7.40;84.00;;;;;;5043349;28;20499;-78
2021/12/20 09:44:53;;;;;;;12.05;3.65;;;7.40;84.20;;;;;;5042002;28;20124;-78
2021/12/20 09:47:19;;;;;;;19.40;4.35;;;7.40;84.30;;;;;;5044600;28;20087;-80
2021/12/20 09:49:45;;;;;;;21.15;3.88;;;7.40;84.50;;;;;;5039052;28;20036;-79
2021/12/20 09:52:11;;;;;;;18.85;4.57;;;7.40;84.70;;;;;;5046291;28;20124;-79
2021/12/20 09:54:39;;;;;;;11.05;3.42;;;7.50;84.90;;;;;;5042703;28;20108;-78
2021/12/20 09:57:08;;;;;;;14.35;4.30;;;7.60;85.10;;;;;;5041670;28;20045;-78
2021/12/20 09:59:38;;;;;;;0.30;0.30;;;7.60;85.30;;;;;;5041151;28;20036;-79
2021/12/20 10:02:08;;;;;;;1.05;1.05;;;7.60;85.20;;;;;;5040695;28;20036;-80
2021/12/20 10:04:34;;;;;;;0.30;0.30;;;7.70;85.10;;;;;;5037545;28;20036;-80
2021/12/20 10:07:01;;;;;;;0.40;0.40;;;7.70;85.00;;;;;;5037288;28;20029;-71
2021/12/20 10:09:32;;;;;;;20.30;3.60;;;7.80;85.00;;;;;;5035788;28;20040;-80
2021/12/20 10:12:18;;;;;;;615.00;25.35;;;7.80;85.20;;;;;;5033020;28;20032;-81
2021/12/20 10:14:58;;;;;;;19.42;3.45;;;7.80;85.80;;;;;;5036193;28;20026;-81
2021/12/20 10:17:31;;;;;;;14.25;2.85;;;8.00;86.30;;;;;;5035308;28;20481;-77
2021/12/20 10:20:17;;;;;;;9.25;3.60;;;7.90;86.60;;;;;;5034949;28;20038;-78
2021/12/20 10:22:43;;;;;;;17.25;3.50;;;8.00;87.20;;;;;;5037736;28;20395;-75
2021/12/20 10:25:24;;;;;;;25.08;5.63;;;8.00;87.10;;;;;;5040856;28;20120;-78
2021/12/20 10:27:50;;;;;;;17.35;3.72;;;8.00;87.90;;;;;;5032491;28;20116;-76
2021/12/20 10:30:20;;;;;;;14.02;3.65;;;8.10;88.10;;;;;;5032166;28;20030;-75
2021/12/20 10:32:46;;;;;;;21.20;5.32;;;8.10;88.60;;;;;;5033247;28;20469;-75
2021/12/20 10:35:38;;;;;;;17.13;3.40;;;8.10;88.50;;;;;;5033227;28;20064;-75
2021/12/20 10:38:26;;;;;;;21.27;4.07;;;8.10;88.60;;;;;;5035829;28;20036;-74
2021/12/20 10:41:19;;;;;;;18.58;3.78;;;8.10;88.70;;;;;;5032267;28;20048;-74
2021/12/20 10:43:57;;;;;;;18.33;3.13;;;8.10;88.80;;;;;;5034624;28;20104;-73
2021/12/20 10:46:24;;;;;;;15.13;3.13;;;8.10;88.90;;;;;;5034780;28;20036;-74
2021/12/20 10:48:59;;;;;;;29.35;3.97;;;8.20;89.00;;;;;;5035083;28;20029;-77
2021/12/20 10:51:31;;;;;;;15.75;4.40;;;8.10;89.10;;;;;;5040617;28;20064;-77
2021/12/20 10:54:02;;;;;;;15.00;2.72;;;8.10;89.20;;;;;;5037100;28;20464;-78
2021/12/20 10:56:30;;;;;;;16.75;3.25;;;8.20;89.40;;;;;;5039484;28;20025;-78
2021/12/20 10:58:57;;;;;;;19.10;3.50;;;8.20;89.50;;;;;;5035841;28;20044;-78
2021/12/20 11:04:23;;;;;;;20.33;3.85;;;8.30;89.60;;;;;;5039896;28;20489;-86
2021/12/20 11:09:04;;;;;;;11.77;2.78;;;8.30;89.60;;;;;;5037909;28;20036;-76
2021/12/20 11:09:59;;;;;;;14.48;3.65;;;8.40;89.70;;;;;;5039108;28;20025;-77
2021/12/20 11:12:32;;;;;;;10.18;3.83;;;8.40;90.10;;;;;;5038663;28;20375;-77
2021/12/20 11:15:08;;;;;;;22.38;3.47;;;8.50;89.60;;;;;;5052352;28;20029;-77
2021/12/20 11:17:34;;;;;;;19.05;2.88;;;8.50;89.70;;;;;;5033172;28;20048;-77
2021/12/20 11:19:59;;;;;;;10.68;2.78;;;8.50;89.70;;;;;;5046183;28;20037;-77
2021/12/20 11:22:28;;;;;;;18.90;3.60;;;8.60;89.80;;;;;;5040122;28;20032;-77
2021/12/20 11:25:00;;;;;;;20.98;3.13;;;8.60;89.70;;;;;;5050681;28;20037;-77
2021/12/20 11:27:25;;;;;;;22.50;4.47;;;8.50;89.50;;;;;;5032451;28;20524;-77
2021/12/20 11:29:53;;;;;;;14.38;3.05;;;8.60;89.40;;;;;;5044648;28;20121;-77
2021/12/20 11:32:21;;;;;;;17.58;3.05;;;8.60;89.30;;;;;;5031489;28;20045;-77
2021/12/20 11:34:47;;;;;;;10.82;2.67;;;8.50;89.20;;;;;;5048799;28;20021;-78
2021/12/20 11:37:16;;;;;;;21.95;2.92;;;8.50;89.10;;;;;;5041597;28;20029;-77
2021/12/20 11:39:43;;;;;;;15.05;2.80;;;8.50;89.10;;;;;;5037590;28;20546;-77
2021/12/20 11:42:12;;;;;;;15.48;3.35;;;8.50;89.10;;;;;;5051988;28;20044;-77
2021/12/20 11:44:39;;;;;;;11.30;2.92;;;8.50;89.20;;;;;;5050864;28;20078;-77
2021/12/20 11:47:29;;;;;;;14.50;3.42;;;8.50;89.20;;;;;;5044728;28;20096;-77
2021/12/20 11:50:17;;;;;;;16.23;2.58;;;8.50;89.10;;;;;;5049701;28;20021;-77
2021/12/20 11:52:46;;;;;;;14.85;2.50;;;8.50;89.10;;;;;;5038848;28;20056;-77
2021/12/20 11:55:25;;;;;;;21.67;2.78;;;8.60;89.10;;;;;;5052526;28;20038;-77
2021/12/20 11:57:54;;;;;;;19.05;4.20;;;8.60;89.00;;;;;;5051382;28;20540;-77
2021/12/20 12:00:39;;;;;;;22.90;3.50;;;8.70;89.10;;;;;;5052402;28;20041;-77
2021/12/20 12:03:26;;;;;;;17.85;2.75;;;8.70;89.00;;;;;;5051800;28;20480;-77
2021/12/20 12:05:56;;;;;;;10.52;2.38;;;8.70;89.00;;;;;;5048082;28;20117;-77
2021/12/20 12:08:29;;;;;;;13.55;2.15;;;8.80;88.60;;;;;;5044147;28;20056;-77
2021/12/20 12:10:58;;;;;;;10.85;2.08;;;8.80;88.40;;;;;;5038258;28;20444;-77
2021/12/20 12:13:27;;;;;;;10.93;2.50;;;8.90;87.90;;;;;;5052550;28;20354;-78
2021/12/20 12:16:03;;;;;;;12.82;2.65;;;8.90;87.50;;;;;;5032553;28;20120;-77
2021/12/20 12:18:50;;;;;;;11.07;2.05;;;9.00;87.20;;;;;;5032796;28;20049;-77
2021/12/20 12:21:30;;;;;;;16.55;2.15;;;9.10;86.90;;;;;;5052300;28;20033;-73
2021/12/20 12:23:56;;;;;;;6.10;1.42;;;9.10;86.50;;;;;;5033244;28;20032;-81
2021/12/20 12:26:32;;;;;;;10.70;2.28;;;9.20;86.60;;;;;;5037298;28;20017;-78
2021/12/20 12:28:59;;;;;;;7.28;1.55;;;9.20;86.30;;;;;;5038988;28;20037;-78
2021/12/20 12:31:26;;;;;;;13.07;2.78;;;9.30;86.50;;;;;;5036392;28;20477;-78
2021/12/20 12:34:09;;;;;;;10.43;1.98;;;9.30;86.50;;;;;;5043676;28;20423;-78
2021/12/20 12:36:41;;;;;;;6.00;1.80;;;9.30;86.40;;;;;;5042533;28;20029;-78
2021/12/20 12:39:11;;;;;;;15.10;3.42;;;9.30;86.70;;;;;;5040951;28;20405;-77
2021/12/20 12:41:46;;;;;;;7.03;1.80;;;9.40;86.90;;;;;;5045755;28;20460;-78
2021/12/20 12:44:24;;;;;;;3.25;1.42;;;9.40;87.00;;;;;;5041624;28;20029;-81
2021/12/20 12:46:53;;;;;;;4.80;1.38;;;9.40;86.70;;;;;;5039210;28;20021;-89
2021/12/20 12:49:22;;;;;;;12.30;2.10;;;9.40;86.70;;;;;;5041473;28;20040;-81
2021/12/20 12:51:54;;;;;;;5.07;1.73;;;9.40;86.80;;;;;;5048544;28;20045;-82
2021/12/20 12:54:43;;;;;;;11.93;1.98;;;9.50;86.90;;;;;;5043903;28;20029;-81
2021/12/20 12:57:11;;;;;;;5.88;1.77;;;9.50;86.50;;;;;;5038330;28;20033;-81
2021/12/20 12:59:45;;;;;;;6.20;1.75;;;9.50;86.50;;;;;;5038020;28;20067;-79
2021/12/20 13:02:20;;;;;;;8.55;1.67;;;9.60;86.10;;;;;;5037914;28;20021;-79
2021/12/20 13:05:06;;;;;;;7.43;1.60;;;9.60;85.40;;;;;;5037042;28;20036;-78
2021/12/20 13:07:34;;;;;;;5.07;1.70;;;9.70;84.80;;;;;;5038247;28;20480;-79
2021/12/20 13:10:15;;;;;;;6.55;1.50;;;9.70;84.90;;;;;;5034511;28;20030;-81